Airfield :
LOGIN :

Register | Disclaimer

   EN    FR    IT 

 










Legend :    VFR   Marginal VFR   IFR   Intensive IFR   Very Intensive IFR
Visi :
Ceiling :
>= 8 km
>= 3000ft
5 to 8 km
1000 to 3000 ft
1500m to 5 km
500 to 1000 ft
800 to 1500m
200 to 500 ft
< 800m
< 200 ft
Symbols :   Thunderstorms  Fog  Heavy snow  Heavy precipitations  Wind > 20 kt
SIGMETs :     Misc.  Thunderstorms  Icing  Turbulence  Mountain Waves  Volcanic Ashes






- Airport Elevation : 26 ft
- IATA code : BIA


LFKB - Bastia

CURRENT METAR :
  • 121930Z AUTO 19004KT CAVOK 21/18 Q1018 NOSIG

EXPIRED METARs :
  • 121900Z AUTO 13004KT CAVOK 22/18 Q1018 NOSIG
  • 121830Z AUTO 15003KT 080V190 CAVOK 24/18 Q1018 NOSIG
  • 121800Z AUTO 12004KT CAVOK 25/18 Q1018 TEMPO 04010KT
  • 121730Z AUTO 02003KT 330V090 CAVOK 26/18 Q1018 NOSIG
  • 121700Z AUTO 03005KT 340V070 CAVOK 26/18 Q1018 NOSIG

TAF TAF LFKB
Valid from the 12 at 15:00 until the 13 at 15:00 UTC


121400Z 1215/1315 04010KT CAVOK TX29/1215Z TN18/1303Z
BECMG 1219/1221 VRB03KT
BECMG 1310/1312 05010KT
ATIS : +33 4 95 59 19 40



MET'MAP, your aeronautical weather chart ! - Copyright ORBIFLY December 2007 - Disclaimer

ORBIFLY MET'MAP TEAM :

Programming & Development : Alexandra Zaïnal
Concept & original design : Baudouin d'Aumeries
Assistance for programming : Marc-Olivier Méhu
Technical & hardware support : Manuel Goepfert

Contact : metmap@orbifly.com




SOURCES & CREDITS :

   NOAA